Time;durP1;ratioP1;P1;durP2;ratioP2;P2;SDS_P1;SDS_P2;PMS_P1;PMS_P2;Temp;Humidity;BMP_temperature;BMP_pressure;BME280_temperature;BME280_humidity;BME280_pressure;Samples;Min_cycle;Max_cycle;Signal;HPM_P1;HPM_P2
2022/06/25 00:00:07;;;;;;;3.30;1.80;;;;;;;;;;5017295;28;20545;-88
2022/06/25 00:02:34;;;;;;;1.70;1.60;;;;;;;;;;5034460;28;20144;-89
2022/06/25 00:07:47;;;;;;;1.70;1.45;;;;;;;;;;5034741;28;20052;-89
2022/06/25 00:10:15;;;;;;;4.03;1.98;;;;;;;;;;5017188;28;20045;-89
2022/06/25 00:12:42;;;;;;;2.88;1.75;;;;;;;;;;5016673;28;20517;-89
2022/06/25 00:15:09;;;;;;;3.50;1.80;;;;;;;;;;5016487;28;20046;-89
2022/06/25 00:17:36;;;;;;;3.33;2.30;;;;;;;;;;5034220;28;20084;-89
2022/06/25 00:20:05;;;;;;;5.25;2.20;;;;;;;;;;5017277;28;20124;-89
2022/06/25 00:22:32;;;;;;;3.15;2.00;;;;;;;;;;5034107;28;20073;-89
2022/06/25 00:24:59;;;;;;;4.85;2.20;;;;;;;;;;5016878;28;20103;-90
2022/06/25 00:27:27;;;;;;;3.20;1.98;;;;;;;;;;5016625;28;20136;-89
2022/06/25 00:29:54;;;;;;;2.13;1.85;;;;;;;;;;5016735;28;20137;-89
2022/06/25 00:32:21;;;;;;;4.00;1.80;;;;;;;;;;5016376;28;20068;-89
2022/06/25 00:34:48;;;;;;;2.47;2.05;;;;;;;;;;5016540;28;20081;-89
2022/06/25 00:37:15;;;;;;;23.20;2.10;;;;;;;;;;5033867;28;20109;-90
2022/06/25 00:39:44;;;;;;;2.28;1.73;;;;;;;;;;5016588;28;20414;-89
2022/06/25 00:42:12;;;;;;;4.15;1.95;;;;;;;;;;5016706;28;20055;-89
2022/06/25 00:44:39;;;;;;;6.63;2.08;;;;;;;;;;5033669;28;20132;-89
2022/06/25 00:47:08;;;;;;;6.60;2.10;;;;;;;;;;5016578;28;20049;-89
2022/06/25 00:49:35;;;;;;;2.75;2.03;;;;;;;;;;5015855;28;20500;-89
2022/06/25 00:52:05;;;;;;;4.68;2.00;;;;;;;;;;5016350;28;20088;-89
2022/06/25 00:54:35;;;;;;;2.78;1.65;;;;;;;;;;5016328;28;20045;-89
2022/06/25 00:57:04;;;;;;;5.00;2.00;;;;;;;;;;5016496;28;20136;-89
2022/06/25 00:59:35;;;;;;;2.30;2.10;;;;;;;;;;5016282;28;20543;-87
2022/06/25 01:02:02;;;;;;;2.47;2.22;;;;;;;;;;5016331;28;20420;-90
2022/06/25 01:04:30;;;;;;;3.10;2.05;;;;;;;;;;5033393;28;20071;-89
2022/06/25 01:06:57;;;;;;;3.10;1.83;;;;;;;;;;5016436;28;20081;-90
2022/06/25 01:09:25;;;;;;;2.05;1.23;;;;;;;;;;5016251;28;20136;-88
2022/06/25 01:11:52;;;;;;;0.80;0.80;;;;;;;;;;5016188;28;20128;-87
2022/06/25 01:14:20;;;;;;;2.00;0.57;;;;;;;;;;5016246;28;20133;-89
2022/06/25 01:16:47;;;;;;;0.93;0.80;;;;;;;;;;5015885;28;20140;-86
2022/06/25 01:19:14;;;;;;;0.95;0.57;;;;;;;;;;5033167;28;20053;-89
2022/06/25 01:21:42;;;;;;;0.77;0.50;;;;;;;;;;5015995;28;20473;-89
2022/06/25 01:24:09;;;;;;;0.40;0.40;;;;;;;;;;5015693;28;20137;-89
2022/06/25 01:26:39;;;;;;;0.57;0.52;;;;;;;;;;5015575;28;20084;-87
2022/06/25 01:29:07;;;;;;;0.50;0.50;;;;;;;;;;5016177;28;20072;-90
2022/06/25 01:31:34;;;;;;;0.38;0.38;;;;;;;;;;5017108;28;20049;-87
2022/06/25 01:34:02;;;;;;;0.60;0.60;;;;;;;;;;5015907;28;20056;-88
2022/06/25 01:36:29;;;;;;;0.40;0.40;;;;;;;;;;5015369;28;20068;-87
2022/06/25 01:38:56;;;;;;;0.98;0.55;;;;;;;;;;5032775;28;20085;-90
2022/06/25 01:41:24;;;;;;;0.40;0.40;;;;;;;;;;5015800;28;20140;-87
2022/06/25 01:43:51;;;;;;;3.70;0.73;;;;;;;;;;5015465;28;20477;-85
2022/06/25 01:46:18;;;;;;;0.60;0.30;;;;;;;;;;5015579;28;20103;-87
2022/06/25 01:48:45;;;;;;;0.40;0.40;;;;;;;;;;5015378;28;20103;-87
2022/06/25 01:51:13;;;;;;;0.40;0.40;;;;;;;;;;5015263;28;20514;-88
2022/06/25 01:53:41;;;;;;;0.40;0.40;;;;;;;;;;5015789;28;20053;-88
2022/06/25 01:56:08;;;;;;;0.80;0.50;;;;;;;;;;5015728;28;20049;-88
2022/06/25 01:58:35;;;;;;;0.45;0.40;;;;;;;;;;5015799;28;20076;-87
2022/06/25 02:01:04;;;;;;;0.30;0.30;;;;;;;;;;5015587;28;20096;-88
2022/06/25 02:03:31;;;;;;;0.73;0.40;;;;;;;;;;5015253;28;20053;-88
2022/06/25 02:05:58;;;;;;;0.20;0.20;;;;;;;;;;5015593;28;20407;-89
2022/06/25 02:08:25;;;;;;;0.98;0.40;;;;;;;;;;5015780;28;20045;-87
2022/06/25 02:10:53;;;;;;;0.50;0.28;;;;;;;;;;5032762;28;20136;-88
2022/06/25 02:13:20;;;;;;;1.02;0.60;;;;;;;;;;5015473;28;20053;-89
2022/06/25 02:15:48;;;;;;;1.75;0.80;;;;;;;;;;5015423;28;20080;-87
2022/06/25 02:18:15;;;;;;;2.20;0.80;;;;;;;;;;5014832;28;20414;-87
2022/06/25 02:20:42;;;;;;;0.63;0.63;;;;;;;;;;5015251;28;20165;-88
2022/06/25 02:23:10;;;;;;;2.88;1.00;;;;;;;;;;5032699;28;20049;-88
2022/06/25 02:25:37;;;;;;;1.38;1.00;;;;;;;;;;5015075;28;20478;-87
2022/06/25 02:28:12;;;;;;;0.95;0.85;;;;;;;;;;5016345;28;20132;-88
2022/06/25 02:30:39;;;;;;;1.83;0.93;;;;;;;;;;5015285;28;20081;-88
2022/06/25 02:33:09;;;;;;;1.10;1.00;;;;;;;;;;5032427;28;20085;-88
2022/06/25 02:35:36;;;;;;;1.00;0.88;;;;;;;;;;5015144;28;20129;-87
2022/06/25 02:38:03;;;;;;;2.88;0.88;;;;;;;;;;5018489;28;20145;-88
2022/06/25 02:40:30;;;;;;;1.08;1.08;;;;;;;;;;5018502;28;20405;-87
2022/06/25 02:42:57;;;;;;;1.30;0.77;;;;;;;;;;5018689;28;20136;-89
2022/06/25 02:45:25;;;;;;;1.50;0.82;;;;;;;;;;5018177;28;20125;-85
2022/06/25 02:47:52;;;;;;;0.98;0.82;;;;;;;;;;5036178;28;20132;-89
2022/06/25 02:50:19;;;;;;;2.72;0.70;;;;;;;;;;5018244;28;20053;-88
2022/06/25 02:52:46;;;;;;;1.75;0.52;;;;;;;;;;5018588;28;20060;-87
2022/06/25 02:55:14;;;;;;;1.30;0.60;;;;;;;;;;5018278;28;20553;-88
2022/06/25 03:00:46;;;;;;;2.05;0.60;;;;;;;;;;4994414;28;20060;-88
2022/06/25 03:03:14;;;;;;;0.82;0.70;;;;;;;;;;4994478;28;20090;-88
2022/06/25 03:05:41;;;;;;;2.13;0.52;;;;;;;;;;5007614;28;20080;-88
2022/06/25 03:08:08;;;;;;;0.90;0.80;;;;;;;;;;5018072;28;20053;-88
2022/06/25 03:10:35;;;;;;;0.70;0.65;;;;;;;;;;5018140;28;20045;-88
2022/06/25 03:13:02;;;;;;;0.80;0.80;;;;;;;;;;5018343;28;20111;-88
2022/06/25 03:15:30;;;;;;;0.63;0.60;;;;;;;;;;5035194;28;20137;-88
2022/06/25 03:17:57;;;;;;;0.57;0.57;;;;;;;;;;5018182;28;20414;-88
2022/06/25 03:20:24;;;;;;;0.73;0.73;;;;;;;;;;5017728;28;20151;-88
2022/06/25 03:22:51;;;;;;;1.17;0.60;;;;;;;;;;5017838;28;20057;-87
2022/06/25 03:25:18;;;;;;;1.95;0.60;;;;;;;;;;5035084;28;20084;-88
2022/06/25 03:27:46;;;;;;;0.63;0.63;;;;;;;;;;5035276;28;20071;-88
2022/06/25 03:30:13;;;;;;;1.48;0.80;;;;;;;;;;5017945;28;20124;-88
2022/06/25 03:32:40;;;;;;;1.48;0.77;;;;;;;;;;5035237;28;20065;-88
2022/06/25 03:35:08;;;;;;;2.85;0.82;;;;;;;;;;5017239;28;20132;-87
2022/06/25 03:37:35;;;;;;;1.02;0.63;;;;;;;;;;5017903;28;20128;-88
2022/06/25 03:40:03;;;;;;;1.05;0.50;;;;;;;;;;5017418;28;20425;-88
2022/06/25 03:42:30;;;;;;;0.75;0.60;;;;;;;;;;5017469;28;20128;-88
2022/06/25 03:44:57;;;;;;;0.65;0.43;;;;;;;;;;5017252;28;20064;-88
2022/06/25 03:47:24;;;;;;;0.50;0.50;;;;;;;;;;5017007;28;20042;-88
2022/06/25 03:49:53;;;;;;;1.63;0.52;;;;;;;;;;5016487;28;20111;-89
2022/06/25 03:52:21;;;;;;;0.75;0.60;;;;;;;;;;5017264;28;20414;-88
2022/06/25 03:54:48;;;;;;;0.80;0.80;;;;;;;;;;5017494;28;20119;-88
2022/06/25 03:57:15;;;;;;;2.17;1.70;;;;;;;;;;5017197;28;20132;-89
2022/06/25 03:59:42;;;;;;;6.85;4.93;;;;;;;;;;5017352;28;20046;-88
2022/06/25 04:02:09;;;;;;;5.10;4.65;;;;;;;;;;5017059;28;20057;-88
2022/06/25 04:04:37;;;;;;;3.75;3.45;;;;;;;;;;5017471;28;20461;-88
2022/06/25 04:07:04;;;;;;;2.33;2.22;;;;;;;;;;5017266;28;20060;-88
2022/06/25 04:09:32;;;;;;;1.02;1.02;;;;;;;;;;5016932;28;20136;-88
2022/06/25 04:11:59;;;;;;;0.80;0.65;;;;;;;;;;5034357;28;20050;-88
2022/06/25 04:14:26;;;;;;;1.27;0.85;;;;;;;;;;5016787;28;20132;-89
2022/06/25 04:16:55;;;;;;;0.60;0.60;;;;;;;;;;5017208;28;20081;-89
2022/06/25 04:19:22;;;;;;;0.85;0.85;;;;;;;;;;5034356;28;20080;-87
2022/06/25 04:21:51;;;;;;;1.23;1.10;;;;;;;;;;5017283;28;20088;-88
2022/06/25 04:24:18;;;;;;;1.10;0.93;;;;;;;;;;5016423;28;20053;-87
2022/06/25 04:26:45;;;;;;;2.00;0.70;;;;;;;;;;5034287;28;20516;-88
2022/06/25 04:29:12;;;;;;;2.10;1.35;;;;;;;;;;5016802;28;20085;-88
2022/06/25 04:31:42;;;;;;;2.03;1.20;;;;;;;;;;5034366;28;20490;-88
2022/06/25 04:34:09;;;;;;;1.15;0.90;;;;;;;;;;5016773;28;20053;-88
2022/06/25 04:36:37;;;;;;;1.77;1.00;;;;;;;;;;5034109;28;20045;-88
2022/06/25 04:39:04;;;;;;;1.20;1.20;;;;;;;;;;5016361;28;20056;-88
2022/06/25 04:41:31;;;;;;;1.50;1.00;;;;;;;;;;5033939;28;20128;-88
2022/06/25 04:44:01;;;;;;;0.88;0.88;;;;;;;;;;5016670;28;20387;-87
2022/06/25 04:46:32;;;;;;;0.80;0.80;;;;;;;;;;5016471;28;20528;-88
2022/06/25 04:48:59;;;;;;;0.98;0.98;;;;;;;;;;5016302;28;20096;-88
2022/06/25 04:51:26;;;;;;;0.70;0.70;;;;;;;;;;5016518;28;20484;-87
2022/06/25 04:53:57;;;;;;;3.95;1.00;;;;;;;;;;5033657;28;20128;-87
2022/06/25 04:56:29;;;;;;;7.65;1.20;;;;;;;;;;5016264;28;20453;-89
2022/06/25 04:58:56;;;;;;;9.65;1.02;;;;;;;;;;5033502;28;20053;-88
2022/06/25 05:01:24;;;;;;;0.85;0.75;;;;;;;;;;5016294;28;20140;-88
2022/06/25 05:03:51;;;;;;;0.82;0.80;;;;;;;;;;5016316;28;20053;-88
2022/06/25 05:06:19;;;;;;;1.27;0.85;;;;;;;;;;5016068;28;20156;-88
2022/06/25 05:08:46;;;;;;;1.77;1.10;;;;;;;;;;5016419;28;20049;-88
2022/06/25 05:11:13;;;;;;;0.70;0.70;;;;;;;;;;5016282;28;20084;-89
2022/06/25 05:13:40;;;;;;;0.60;0.60;;;;;;;;;;5016278;28;20140;-88
2022/06/25 05:16:07;;;;;;;0.75;0.75;;;;;;;;;;5033566;28;20053;-88
2022/06/25 05:18:34;;;;;;;1.95;0.95;;;;;;;;;;5033767;28;20413;-88
2022/06/25 05:21:02;;;;;;;0.75;0.75;;;;;;;;;;5033802;28;20068;-89
2022/06/25 05:23:29;;;;;;;1.13;0.90;;;;;;;;;;5033439;28;20103;-90
2022/06/25 05:25:56;;;;;;;0.60;0.60;;;;;;;;;;5016230;28;20131;-87
2022/06/25 05:28:23;;;;;;;1.55;0.82;;;;;;;;;;5015921;28;20137;-90
2022/06/25 05:30:51;;;;;;;0.65;0.65;;;;;;;;;;5016062;28;20458;-86
2022/06/25 05:33:18;;;;;;;1.00;0.60;;;;;;;;;;5033271;28;20128;-88
2022/06/25 05:35:46;;;;;;;2.55;0.60;;;;;;;;;;5015866;28;20052;-86
2022/06/25 05:38:13;;;;;;;0.93;0.70;;;;;;;;;;5033133;28;20132;-88
2022/06/25 05:40:40;;;;;;;1.65;0.63;;;;;;;;;;5015870;28;20205;-86
2022/06/25 05:43:07;;;;;;;0.90;0.80;;;;;;;;;;5015863;28;20121;-92
2022/06/25 05:45:34;;;;;;;1.52;0.80;;;;;;;;;;5015725;28;20136;-88
2022/06/25 05:48:02;;;;;;;1.00;0.85;;;;;;;;;;5016019;28;20050;-89
2022/06/25 05:50:29;;;;;;;0.98;0.70;;;;;;;;;;5015697;28;20089;-88
2022/06/25 05:52:57;;;;;;;1.10;0.90;;;;;;;;;;5015556;28;20153;-90
2022/06/25 05:55:24;;;;;;;0.98;0.80;;;;;;;;;;5033033;28;20136;-89
2022/06/25 05:57:52;;;;;;;0.93;0.75;;;;;;;;;;5015790;28;20136;-89
2022/06/25 06:00:19;;;;;;;1.50;0.90;;;;;;;;;;5032954;28;20088;-87
2022/06/25 06:02:46;;;;;;;0.73;0.73;;;;;;;;;;5032952;28;20490;-88
2022/06/25 06:05:14;;;;;;;1.25;0.90;;;;;;;;;;5015602;28;20049;-88
2022/06/25 06:07:41;;;;;;;1.30;0.75;;;;;;;;;;5016554;28;20049;-89
2022/06/25 06:10:08;;;;;;;0.90;0.90;;;;;;;;;;5017106;28;20045;-89
2022/06/25 06:12:35;;;;;;;0.80;0.80;;;;;;;;;;5036099;28;20053;-89
2022/06/25 06:15:03;;;;;;;2.00;0.85;;;;;;;;;;5036670;28;20140;-90
2022/06/25 06:17:31;;;;;;;3.05;1.00;;;;;;;;;;5019565;28;20076;-88
2022/06/25 06:19:59;;;;;;;0.90;0.90;;;;;;;;;;5036683;28;20417;-90
2022/06/25 06:22:27;;;;;;;8.25;1.10;;;;;;;;;;5019185;28;20140;-89
2022/06/25 06:24:54;;;;;;;5.93;0.90;;;;;;;;;;5036308;28;20132;-89
2022/06/25 06:27:21;;;;;;;5.68;1.00;;;;;;;;;;5036353;28;20056;-89
2022/06/25 06:29:49;;;;;;;4.18;1.15;;;;;;;;;;5019130;28;20140;-89
2022/06/25 06:32:16;;;;;;;2.60;0.90;;;;;;;;;;5036285;28;20136;-89
2022/06/25 06:34:44;;;;;;;2.35;0.90;;;;;;;;;;5019022;28;20081;-89
2022/06/25 06:37:11;;;;;;;1.38;0.73;;;;;;;;;;5018982;28;20132;-89
2022/06/25 06:39:45;;;;;;;2.15;0.82;;;;;;;;;;5035965;28;20084;-88
2022/06/25 06:42:12;;;;;;;1.40;0.77;;;;;;;;;;5018867;28;20121;-88
2022/06/25 06:44:39;;;;;;;1.55;0.70;;;;;;;;;;5036260;28;20129;-90
2022/06/25 06:47:07;;;;;;;2.42;0.90;;;;;;;;;;5018759;28;20211;-89
2022/06/25 06:49:34;;;;;;;2.58;0.70;;;;;;;;;;5035760;28;20484;-90
2022/06/25 06:52:01;;;;;;;1.35;0.90;;;;;;;;;;5018532;28;20087;-90
2022/06/25 06:54:28;;;;;;;11.45;1.48;;;;;;;;;;5018301;28;20117;-90
2022/06/25 06:56:56;;;;;;;51.10;4.88;;;;;;;;;;5018902;28;20494;-90
2022/06/25 06:59:23;;;;;;;1.85;0.73;;;;;;;;;;5018811;28;20417;-89
2022/06/25 07:01:50;;;;;;;0.85;0.85;;;;;;;;;;5018413;28;20050;-89
2022/06/25 07:04:18;;;;;;;1.95;1.30;;;;;;;;;;5018382;28;20085;-90
2022/06/25 07:06:48;;;;;;;2.38;0.77;;;;;;;;;;5036038;28;20079;-90
2022/06/25 07:09:18;;;;;;;0.60;0.60;;;;;;;;;;5018773;28;20111;-90
2022/06/25 07:11:46;;;;;;;0.98;0.70;;;;;;;;;;5018431;28;20057;-91
2022/06/25 07:14:13;;;;;;;0.50;0.50;;;;;;;;;;5018300;28;20053;-89
2022/06/25 07:16:41;;;;;;;0.98;0.70;;;;;;;;;;5018570;28;20049;-87
2022/06/25 07:19:10;;;;;;;1.13;0.70;;;;;;;;;;5035543;28;20144;-91
2022/06/25 07:21:38;;;;;;;1.52;1.10;;;;;;;;;;5035986;28;20076;-88
2022/06/25 07:24:05;;;;;;;1.38;0.90;;;;;;;;;;5035572;28;20041;-86
2022/06/25 07:26:35;;;;;;;3.63;0.85;;;;;;;;;;5018186;28;20092;-90
2022/06/25 07:29:03;;;;;;;2.05;0.93;;;;;;;;;;5018644;28;20061;-87
2022/06/25 07:31:30;;;;;;;0.68;0.55;;;;;;;;;;5017813;28;20540;-89
2022/06/25 07:33:57;;;;;;;3.38;0.80;;;;;;;;;;5017345;28;20132;-87
2022/06/25 07:36:24;;;;;;;4.15;0.90;;;;;;;;;;5034396;28;20080;-88
2022/06/25 07:38:52;;;;;;;13.27;1.77;;;;;;;;;;5017478;28;20084;-86
2022/06/25 07:41:19;;;;;;;5.50;1.73;;;;;;;;;;5035054;28;20445;-87
2022/06/25 07:43:46;;;;;;;9.32;1.67;;;;;;;;;;5035270;28;20419;-90
2022/06/25 07:46:14;;;;;;;7.18;1.50;;;;;;;;;;5035281;28;20088;-88
2022/06/25 07:48:42;;;;;;;11.73;2.30;;;;;;;;;;5034223;28;20042;-87
2022/06/25 07:53:55;;;;;;;1.77;0.80;;;;;;;;;;5034712;28;20132;-87
2022/06/25 07:56:22;;;;;;;0.75;0.70;;;;;;;;;;5017287;28;20099;-88
2022/06/25 07:58:49;;;;;;;2.65;0.77;;;;;;;;;;5017346;28;20100;-87
2022/06/25 08:01:16;;;;;;;1.10;0.50;;;;;;;;;;5017373;28;20128;-88
2022/06/25 08:03:44;;;;;;;1.13;0.70;;;;;;;;;;5034543;28;20053;-87
2022/06/25 08:06:12;;;;;;;0.70;0.70;;;;;;;;;;5034254;28;20409;-87
2022/06/25 08:08:39;;;;;;;1.05;0.80;;;;;;;;;;5034779;28;20421;-88
2022/06/25 08:11:07;;;;;;;0.55;0.55;;;;;;;;;;5034172;28;20108;-88
2022/06/25 08:13:34;;;;;;;0.73;0.70;;;;;;;;;;5016702;28;20107;-90
2022/06/25 08:16:02;;;;;;;0.95;0.93;;;;;;;;;;5034027;28;20120;-88
2022/06/25 08:18:29;;;;;;;0.88;0.80;;;;;;;;;;5016750;28;20053;-88
2022/06/25 08:20:56;;;;;;;0.50;0.50;;;;;;;;;;5033786;28;20133;-85
2022/06/25 08:23:23;;;;;;;0.60;0.60;;;;;;;;;;5033852;28;20418;-86
2022/06/25 08:25:50;;;;;;;0.60;0.60;;;;;;;;;;5015974;28;20525;-86
2022/06/25 08:28:18;;;;;;;1.35;0.98;;;;;;;;;;5016249;28;20128;-89
2022/06/25 08:30:45;;;;;;;0.73;0.60;;;;;;;;;;5016819;28;20081;-92
2022/06/25 08:33:14;;;;;;;0.60;0.60;;;;;;;;;;5016174;28;20450;-87
2022/06/25 08:35:42;;;;;;;0.93;0.52;;;;;;;;;;5015265;28;20103;-89
2022/06/25 08:38:09;;;;;;;1.05;0.90;;;;;;;;;;5016375;28;20573;-88
2022/06/25 08:40:36;;;;;;;2.08;0.90;;;;;;;;;;5033946;28;20058;-90
2022/06/25 08:43:10;;;;;;;0.50;0.50;;;;;;;;;;5016941;28;20081;-87
2022/06/25 08:45:37;;;;;;;0.65;0.60;;;;;;;;;;5033312;28;20195;-87
2022/06/25 08:48:10;;;;;;;1.60;0.60;;;;;;;;;;5033489;28;20425;-84
2022/06/25 08:50:37;;;;;;;0.70;0.43;;;;;;;;;;5015399;28;20132;-87
2022/06/25 08:53:06;;;;;;;0.60;0.60;;;;;;;;;;5015963;28;20076;-84
2022/06/25 08:55:36;;;;;;;2.55;0.85;;;;;;;;;;5015706;28;20053;-89
2022/06/25 08:58:04;;;;;;;0.70;0.70;;;;;;;;;;5016415;28;20058;-87
2022/06/25 09:00:31;;;;;;;2.85;0.80;;;;;;;;;;5033176;28;20056;-87
2022/06/25 09:02:59;;;;;;;0.70;0.70;;;;;;;;;;5015790;28;20095;-86
2022/06/25 09:05:28;;;;;;;1.30;0.70;;;;;;;;;;5015267;28;20045;-86
2022/06/25 09:07:56;;;;;;;0.52;0.52;;;;;;;;;;5015495;28;20049;-86
2022/06/25 09:10:25;;;;;;;0.70;0.70;;;;;;;;;;5033263;28;20552;-88
2022/06/25 09:12:54;;;;;;;1.30;0.75;;;;;;;;;;5016334;28;20060;-88
2022/06/25 09:15:22;;;;;;;1.05;0.80;;;;;;;;;;5015811;28;20049;-87
2022/06/25 09:17:51;;;;;;;0.95;0.70;;;;;;;;;;5016208;28;20107;-88
2022/06/25 09:20:24;;;;;;;0.80;0.80;;;;;;;;;;5017107;28;20497;-85
2022/06/25 09:22:55;;;;;;;0.88;0.75;;;;;;;;;;5033451;28;20455;-89
2022/06/25 09:25:27;;;;;;;0.60;0.60;;;;;;;;;;5015913;28;20095;-87
2022/06/25 09:27:55;;;;;;;1.27;0.80;;;;;;;;;;5016079;28;20049;-88
2022/06/25 09:30:22;;;;;;;1.15;0.65;;;;;;;;;;5015774;28;20514;-88
2022/06/25 09:32:51;;;;;;;1.48;0.88;;;;;;;;;;5015844;28;20129;-88
2022/06/25 09:35:30;;;;;;;0.68;0.57;;;;;;;;;;5015706;28;20053;-88
2022/06/25 09:38:01;;;;;;;0.75;0.75;;;;;;;;;;5033368;28;20049;-88
2022/06/25 09:40:28;;;;;;;0.50;0.50;;;;;;;;;;5033145;28;20136;-88
2022/06/25 09:42:57;;;;;;;2.42;1.38;;;;;;;;;;5015839;28;20076;-88
2022/06/25 09:45:24;;;;;;;1.83;0.75;;;;;;;;;;5033199;28;20129;-89
2022/06/25 09:47:54;;;;;;;0.85;0.77;;;;;;;;;;5019262;28;20132;-88
2022/06/25 09:50:22;;;;;;;0.77;0.63;;;;;;;;;;5019536;28;20065;-89
2022/06/25 09:52:50;;;;;;;0.80;0.80;;;;;;;;;;5037079;28;20133;-88
2022/06/25 09:55:18;;;;;;;6.78;1.00;;;;;;;;;;5019434;28;20049;-87
2022/06/25 09:57:45;;;;;;;0.95;0.80;;;;;;;;;;5019759;28;20124;-89
2022/06/25 10:00:14;;;;;;;0.60;0.60;;;;;;;;;;5019339;28;20136;-87
2022/06/25 10:02:45;;;;;;;1.15;0.73;;;;;;;;;;5019378;28;20052;-88
2022/06/25 10:05:13;;;;;;;2.60;0.82;;;;;;;;;;5019085;28;20099;-87
2022/06/25 10:08:01;;;;;;;0.52;0.52;;;;;;;;;;5019468;28;20092;-87
2022/06/25 10:10:31;;;;;;;4.82;0.68;;;;;;;;;;5019236;28;20369;-88
2022/06/25 10:12:59;;;;;;;0.80;0.50;;;;;;;;;;5037109;28;20042;-87
2022/06/25 10:15:26;;;;;;;3.40;0.60;;;;;;;;;;5018650;28;20132;-88
2022/06/25 10:17:53;;;;;;;1.58;0.40;;;;;;;;;;5019034;28;20463;-88
2022/06/25 10:20:21;;;;;;;1.77;0.40;;;;;;;;;;5018904;28;20209;-87
2022/06/25 10:22:49;;;;;;;1.00;0.35;;;;;;;;;;5019447;28;20128;-90
2022/06/25 10:25:21;;;;;;;0.75;0.50;;;;;;;;;;5036883;28;20096;-89
2022/06/25 10:27:49;;;;;;;0.85;0.60;;;;;;;;;;5036388;28;20077;-88
2022/06/25 10:30:37;;;;;;;0.65;0.40;;;;;;;;;;5035985;28;20053;-88
2022/06/25 10:33:04;;;;;;;0.32;0.32;;;;;;;;;;5018520;28;20148;-90
2022/06/25 10:35:40;;;;;;;0.70;0.55;;;;;;;;;;5036075;28;20049;-88
2022/06/25 10:38:12;;;;;;;0.43;0.43;;;;;;;;;;5018218;28;20049;-88
2022/06/25 10:40:50;;;;;;;1.65;0.50;;;;;;;;;;5017757;28;20058;-88
2022/06/25 10:43:36;;;;;;;0.60;0.60;;;;;;;;;;5035944;28;20083;-87
2022/06/25 10:46:22;;;;;;;0.95;0.40;;;;;;;;;;5018695;28;20051;-92
2022/06/25 10:48:51;;;;;;;0.52;0.50;;;;;;;;;;5018484;28;20041;-86
2022/06/25 10:51:27;;;;;;;1.08;0.80;;;;;;;;;;5017509;28;20056;-87
2022/06/25 10:53:55;;;;;;;1.75;0.55;;;;;;;;;;5018612;28;20092;-88
2022/06/25 10:56:22;;;;;;;1.35;0.60;;;;;;;;;;5018255;28;20092;-88
2022/06/25 10:58:50;;;;;;;2.42;0.63;;;;;;;;;;5018379;28;20064;-87
2022/06/25 11:01:19;;;;;;;0.40;0.40;;;;;;;;;;5035539;28;20052;-89
2022/06/25 11:03:46;;;;;;;0.65;0.50;;;;;;;;;;5035400;28;20045;-88
2022/06/25 11:06:22;;;;;;;0.55;0.50;;;;;;;;;;5017745;28;20087;-88
2022/06/25 11:08:50;;;;;;;0.93;0.73;;;;;;;;;;5018360;28;20060;-88
2022/06/25 11:11:25;;;;;;;0.68;0.50;;;;;;;;;;5018271;28;20080;-91
2022/06/25 11:13:52;;;;;;;0.40;0.40;;;;;;;;;;5018027;28;20523;-90
2022/06/25 11:16:20;;;;;;;1.75;0.50;;;;;;;;;;5017650;28;20136;-89
2022/06/25 11:18:48;;;;;;;0.68;0.52;;;;;;;;;;5035654;28;20092;-89
2022/06/25 11:21:25;;;;;;;3.53;0.65;;;;;;;;;;5035666;28;20088;-90
2022/06/25 11:24:12;;;;;;;1.48;0.80;;;;;;;;;;5018156;28;20085;-89
2022/06/25 11:29:28;;;;;;;2.05;0.70;;;;;;;;;;5035415;28;20128;-89
2022/06/25 11:31:56;;;;;;;0.70;0.70;;;;;;;;;;5035961;28;20051;-89
2022/06/25 11:34:24;;;;;;;0.80;0.80;;;;;;;;;;5016973;28;20059;-90
2022/06/25 11:36:55;;;;;;;1.15;0.77;;;;;;;;;;5034499;28;20087;-89
2022/06/25 11:39:23;;;;;;;0.68;0.68;;;;;;;;;;5017975;28;20085;-89
2022/06/25 11:41:53;;;;;;;0.82;0.70;;;;;;;;;;5017894;28;20049;-89
2022/06/25 11:44:21;;;;;;;0.57;0.57;;;;;;;;;;5017890;28;20115;-89
2022/06/25 11:46:49;;;;;;;0.60;0.60;;;;;;;;;;5017923;28;20045;-88
2022/06/25 11:49:16;;;;;;;0.95;0.50;;;;;;;;;;5017326;28;20049;-88
2022/06/25 11:51:48;;;;;;;0.65;0.65;;;;;;;;;;5017836;28;20053;-89
2022/06/25 11:54:16;;;;;;;0.68;0.63;;;;;;;;;;5017133;28;20653;-86
2022/06/25 11:56:47;;;;;;;1.55;0.85;;;;;;;;;;5034736;28;20450;-87
2022/06/25 11:59:22;;;;;;;0.93;0.70;;;;;;;;;;5034729;28;20081;-89
2022/06/25 12:01:50;;;;;;;1.42;0.60;;;;;;;;;;5016772;28;20054;-87
2022/06/25 12:04:21;;;;;;;1.33;0.60;;;;;;;;;;5015936;28;20060;-88
2022/06/25 12:06:48;;;;;;;1.20;0.60;;;;;;;;;;5016290;28;20457;-90
2022/06/25 12:09:17;;;;;;;0.50;0.50;;;;;;;;;;5015657;28;20054;-88
2022/06/25 12:11:51;;;;;;;1.60;0.65;;;;;;;;;;5016344;28;20045;-88
2022/06/25 12:14:22;;;;;;;0.50;0.50;;;;;;;;;;5016275;28;20045;-87
2022/06/25 12:16:50;;;;;;;1.88;0.60;;;;;;;;;;5033247;28;20482;-85
2022/06/25 12:19:18;;;;;;;0.50;0.45;;;;;;;;;;5015627;28;20049;-87
2022/06/25 12:21:46;;;;;;;1.05;0.55;;;;;;;;;;5015984;28;20495;-87
2022/06/25 12:24:14;;;;;;;0.60;0.60;;;;;;;;;;5033018;28;20446;-87
2022/06/25 12:26:43;;;;;;;0.60;0.60;;;;;;;;;;5033205;28;20144;-87
2022/06/25 12:29:25;;;;;;;0.93;0.70;;;;;;;;;;5016705;28;20462;-88
2022/06/25 12:31:56;;;;;;;0.60;0.40;;;;;;;;;;5015369;28;20041;-87
2022/06/25 12:34:24;;;;;;;0.50;0.50;;;;;;;;;;5015408;28;20068;-88
2022/06/25 12:36:52;;;;;;;2.65;0.90;;;;;;;;;;5015751;28;20456;-86
2022/06/25 12:39:44;;;;;;;1.63;0.80;;;;;;;;;;5015088;28;20132;-87
2022/06/25 12:42:13;;;;;;;1.00;1.00;;;;;;;;;;5032554;28;20053;-89
2022/06/25 12:44:41;;;;;;;2.22;0.80;;;;;;;;;;5033489;28;20049;-88
2022/06/25 12:47:10;;;;;;;0.70;0.70;;;;;;;;;;5033362;28;20144;-90
2022/06/25 12:49:41;;;;;;;1.73;0.60;;;;;;;;;;5015731;28;20136;-88
2022/06/25 12:52:08;;;;;;;0.90;0.70;;;;;;;;;;5015411;28;20083;-87
2022/06/25 12:54:46;;;;;;;1.48;0.60;;;;;;;;;;5015190;28;20107;-85
2022/06/25 12:57:30;;;;;;;0.80;0.70;;;;;;;;;;5015317;28;20538;-89
2022/06/25 12:59:57;;;;;;;0.43;0.43;;;;;;;;;;5015371;28;20144;-86
2022/06/25 13:02:33;;;;;;;0.60;0.60;;;;;;;;;;5016204;28;20128;-88
2022/06/25 13:05:01;;;;;;;2.05;0.63;;;;;;;;;;5015466;28;20409;-88
2022/06/25 13:07:28;;;;;;;0.82;0.55;;;;;;;;;;5032727;28;20095;-87
2022/06/25 13:09:55;;;;;;;0.70;0.70;;;;;;;;;;5015604;28;20057;-88
2022/06/25 13:12:25;;;;;;;0.50;0.50;;;;;;;;;;5015975;28;20501;-88
2022/06/25 13:14:52;;;;;;;1.08;0.60;;;;;;;;;;5031901;28;20573;-88
2022/06/25 13:17:19;;;;;;;2.92;0.60;;;;;;;;;;5032534;28;20162;-89
2022/06/25 13:19:47;;;;;;;0.80;0.60;;;;;;;;;;5032530;28;20065;-88
2022/06/25 13:22:14;;;;;;;4.20;0.77;;;;;;;;;;5032414;28;20053;-87
2022/06/25 13:24:42;;;;;;;0.55;0.55;;;;;;;;;;5015377;28;20053;-89
2022/06/25 13:27:09;;;;;;;0.60;0.60;;;;;;;;;;5015237;28;20132;-88
2022/06/25 13:29:36;;;;;;;0.50;0.50;;;;;;;;;;5015465;28;20168;-88
2022/06/25 13:32:04;;;;;;;1.05;0.80;;;;;;;;;;5015089;28;20045;-88
2022/06/25 13:34:31;;;;;;;1.85;0.55;;;;;;;;;;5032325;28;20057;-88
2022/06/25 13:36:58;;;;;;;1.75;0.50;;;;;;;;;;5032410;28;20055;-88
2022/06/25 13:39:25;;;;;;;2.75;0.70;;;;;;;;;;5031977;28;20501;-86
2022/06/25 13:41:52;;;;;;;1.50;0.60;;;;;;;;;;5032224;28;20080;-88
2022/06/25 13:44:20;;;;;;;0.50;0.50;;;;;;;;;;5014637;28;20090;-87
2022/06/25 13:46:48;;;;;;;0.57;0.50;;;;;;;;;;5014985;28;20057;-88
2022/06/25 13:49:15;;;;;;;1.88;0.55;;;;;;;;;;5015273;28;20046;-88
2022/06/25 13:51:42;;;;;;;0.68;0.68;;;;;;;;;;5015034;28;20136;-88
2022/06/25 13:54:10;;;;;;;1.88;0.68;;;;;;;;;;5014502;28;20564;-86
2022/06/25 13:56:38;;;;;;;0.50;0.50;;;;;;;;;;5032407;28;20045;-89
2022/06/25 13:59:05;;;;;;;0.93;0.50;;;;;;;;;;5015019;28;20081;-88
2022/06/25 14:01:32;;;;;;;1.13;1.00;;;;;;;;;;5032082;28;20077;-87
2022/06/25 14:04:00;;;;;;;0.73;0.73;;;;;;;;;;5031737;28;20053;-89
2022/06/25 14:06:28;;;;;;;2.95;0.60;;;;;;;;;;5015055;28;20076;-89
2022/06/25 14:08:56;;;;;;;2.20;0.60;;;;;;;;;;5015187;28;20132;-90
2022/06/25 14:11:23;;;;;;;1.25;0.55;;;;;;;;;;5014932;28;20137;-89
2022/06/25 14:13:51;;;;;;;4.57;0.95;;;;;;;;;;5027969;28;20251;-89
2022/06/25 14:16:18;;;;;;;0.40;0.40;;;;;;;;;;5021294;28;20080;-89
2022/06/25 14:18:48;;;;;;;0.50;0.50;;;;;;;;;;5014134;28;20077;-89
2022/06/25 14:21:17;;;;;;;0.82;0.57;;;;;;;;;;5014702;28;20052;-90
2022/06/25 14:23:44;;;;;;;1.27;0.50;;;;;;;;;;5014494;28;20053;-87
2022/06/25 14:26:12;;;;;;;0.50;0.50;;;;;;;;;;5030086;28;20136;-90
2022/06/25 14:28:42;;;;;;;0.75;0.73;;;;;;;;;;5012722;28;20057;-86
2022/06/25 14:31:10;;;;;;;0.70;0.38;;;;;;;;;;5032014;28;20132;-87
2022/06/25 14:33:37;;;;;;;1.27;0.57;;;;;;;;;;5034174;28;20091;-86
2022/06/25 14:44:23;;;;;;;1.45;0.70;;;;;;;;;;5035376;28;20128;-88
2022/06/25 14:46:50;;;;;;;0.80;0.63;;;;;;;;;;5018282;28;20409;-87
2022/06/25 14:49:17;;;;;;;2.13;0.60;;;;;;;;;;5017957;28;20049;-86
2022/06/25 14:51:44;;;;;;;0.57;0.52;;;;;;;;;;5035861;28;20132;-88
2022/06/25 14:54:11;;;;;;;0.70;0.60;;;;;;;;;;5018005;28;20561;-87
2022/06/25 14:56:39;;;;;;;1.17;0.70;;;;;;;;;;5018450;28;20050;-88
2022/06/25 14:59:06;;;;;;;1.10;0.70;;;;;;;;;;5018413;28;20049;-87
2022/06/25 15:01:33;;;;;;;3.47;0.80;;;;;;;;;;5018307;28;20053;-88
2022/06/25 15:04:01;;;;;;;0.88;0.70;;;;;;;;;;5034849;28;20502;-87
2022/06/25 15:06:28;;;;;;;0.93;0.70;;;;;;;;;;5017992;28;20215;-87
2022/06/25 15:08:56;;;;;;;0.70;0.70;;;;;;;;;;5018210;28;20124;-88